Time;durP1;ratioP1;P1;durP2;ratioP2;P2;SDS_P1;SDS_P2;PMS_P1;PMS_P2;Temp;Humidity;BMP_temperature;BMP_pressure;BME280_temperature;BME280_humidity;BME280_pressure;Samples;Min_cycle;Max_cycle;Signal;HPM_P1;HPM_P2
2023/04/20 00:02:14;;;;;;;11.17;4.67;;;;;;;7.26;100.00;101564.31;5095727;28;20900;-68
2023/04/20 00:04:40;;;;;;;11.70;3.97;;;;;;;7.24;100.00;101566.44;5095745;28;20444;-67
2023/04/20 00:07:07;;;;;;;12.17;4.60;;;;;;;7.26;100.00;101560.78;5095928;28;20537;-67
2023/04/20 00:09:35;;;;;;;11.70;4.50;;;;;;;7.26;100.00;101563.47;5095898;28;20499;-68
2023/04/20 00:12:02;;;;;;;11.77;4.37;;;;;;;7.22;100.00;101565.88;5095566;28;20497;-68
2023/04/20 00:14:28;;;;;;;7.63;3.43;;;;;;;7.23;100.00;101555.91;5095828;28;20440;-68
2023/04/20 00:16:55;;;;;;;10.60;4.43;;;;;;;7.29;100.00;101555.69;5095521;28;20527;-68
2023/04/20 00:19:22;;;;;;;10.10;3.80;;;;;;;7.30;100.00;101557.34;5095755;28;20559;-67
2023/04/20 00:21:48;;;;;;;10.13;3.73;;;;;;;7.34;100.00;101558.44;5095687;28;20475;-66
2023/04/20 00:24:15;;;;;;;7.80;3.20;;;;;;;7.32;100.00;101555.19;5095345;28;20445;-67
2023/04/20 00:26:43;;;;;;;13.07;4.20;;;;;;;7.38;100.00;101557.94;5095507;28;20844;-68
2023/04/20 00:29:10;;;;;;;10.43;4.20;;;;;;;7.40;100.00;101553.94;5095207;28;20480;-68
2023/04/20 00:31:36;;;;;;;9.33;3.97;;;;;;;7.38;100.00;101555.25;5095174;28;21000;-68
2023/04/20 00:34:03;;;;;;;9.17;3.63;;;;;;;7.32;100.00;101551.69;5095407;28;20531;-67
2023/04/20 00:36:30;;;;;;;10.50;3.40;;;;;;;7.31;100.00;101555.47;5095366;28;20450;-67
2023/04/20 00:38:57;;;;;;;9.00;3.67;;;;;;;7.33;100.00;101556.00;5094894;28;20562;-68
2023/04/20 00:41:24;;;;;;;9.50;3.97;;;;;;;7.31;100.00;101560.84;5095331;28;20524;-67
2023/04/20 00:43:53;;;;;;;9.13;3.17;;;;;;;7.24;100.00;101558.34;5095256;28;20831;-67
2023/04/20 00:46:20;;;;;;;11.67;4.53;;;;;;;7.22;100.00;101551.59;5095103;28;20495;-67
2023/04/20 00:48:48;;;;;;;8.30;3.40;;;;;;;7.11;100.00;101549.88;5094847;28;20551;-68
2023/04/20 00:51:15;;;;;;;8.87;3.60;;;;;;;7.11;100.00;101553.38;5094837;28;20475;-67
2023/04/20 00:53:41;;;;;;;9.20;3.93;;;;;;;7.11;100.00;101547.16;5094660;28;20440;-66
2023/04/20 00:56:09;;;;;;;9.10;3.77;;;;;;;7.18;100.00;101551.28;5095265;28;20501;-67
2023/04/20 00:58:37;;;;;;;9.60;3.60;;;;;;;7.13;100.00;101548.56;5095053;28;20510;-68
2023/04/20 01:01:06;;;;;;;8.93;3.23;;;;;;;7.21;100.00;101545.38;5095031;28;20428;-68
2023/04/20 01:03:33;;;;;;;11.80;4.00;;;;;;;7.23;100.00;101542.44;5094877;28;20497;-68
2023/04/20 01:05:59;;;;;;;10.00;3.50;;;;;;;7.26;100.00;101542.75;5095002;28;20493;-67
2023/04/20 01:08:27;;;;;;;11.50;4.20;;;;;;;7.34;100.00;101542.28;5094780;28;20452;-66
2023/04/20 01:10:54;;;;;;;8.97;3.40;;;;;;;7.38;100.00;101549.84;5095234;28;20463;-67
2023/04/20 01:13:21;;;;;;;9.23;3.73;;;;;;;7.41;100.00;101552.84;5094847;28;20947;-67
2023/04/20 01:15:48;;;;;;;10.27;4.03;;;;;;;7.47;100.00;101548.31;5094647;28;20935;-67
2023/04/20 01:18:18;;;;;;;6.30;2.50;;;;;;;7.48;100.00;101545.38;5094557;28;20900;-66
2023/04/20 01:20:45;;;;;;;10.80;4.63;;;;;;;7.49;100.00;101546.19;5094810;28;20497;-67
2023/04/20 01:23:13;;;;;;;7.63;3.03;;;;;;;7.47;100.00;101548.31;5094782;28;20805;-67
2023/04/20 01:25:40;;;;;;;8.50;3.97;;;;;;;7.38;100.00;101539.06;5094786;28;20470;-68
2023/04/20 01:28:08;;;;;;;12.57;4.47;;;;;;;7.39;100.00;101538.81;5094351;28;20567;-67
2023/04/20 01:30:35;;;;;;;10.07;4.53;;;;;;;7.43;100.00;101539.13;5094379;28;20445;-67
2023/04/20 01:33:01;;;;;;;9.57;3.87;;;;;;;7.47;100.00;101535.66;5094656;28;20448;-67
2023/04/20 01:35:28;;;;;;;9.83;3.40;;;;;;;7.50;100.00;101531.63;5094601;28;20524;-67
2023/04/20 01:37:54;;;;;;;8.07;3.57;;;;;;;7.49;100.00;101536.22;5094353;28;20447;-67
2023/04/20 01:40:22;;;;;;;10.13;3.53;;;;;;;7.50;100.00;101537.03;5094262;28;20498;-67
2023/04/20 01:42:49;;;;;;;11.90;4.47;;;;;;;7.47;100.00;101532.13;5126683;22;20499;-66
2023/04/20 01:45:16;;;;;;;8.87;3.13;;;;;;;7.41;100.00;101536.69;5114437;28;20808;-66
2023/04/20 01:47:42;;;;;;;9.67;4.07;;;;;;;7.34;100.00;101527.97;5114305;28;20483;-66
2023/04/20 01:50:09;;;;;;;11.50;4.27;;;;;;;7.38;100.00;101528.28;5114329;28;20478;-66
2023/04/20 01:52:36;;;;;;;9.17;3.30;;;;;;;7.29;100.00;101534.13;5108613;28;20895;-66
2023/04/20 01:55:02;;;;;;;9.40;3.87;;;;;;;7.27;100.00;101519.31;5093899;28;20463;-66
2023/04/20 01:57:30;;;;;;;9.37;3.80;;;;;;;7.26;100.00;101528.44;5093851;28;20523;-66
2023/04/20 01:59:57;;;;;;;8.30;3.40;;;;;;;7.20;100.00;101529.47;5093534;28;20939;-66
2023/04/20 02:02:23;;;;;;;12.30;3.70;;;;;;;7.16;100.00;101528.34;5093684;28;20805;-65
2023/04/20 02:04:52;;;;;;;9.40;3.83;;;;;;;7.11;100.00;101531.81;5092711;28;20536;-66
2023/04/20 02:07:18;;;;;;;14.13;3.30;;;;;;;7.14;100.00;101525.13;5093311;28;21065;-66
2023/04/20 02:09:45;;;;;;;8.90;3.87;;;;;;;7.10;100.00;101522.13;5093678;28;20473;-66
2023/04/20 02:12:11;;;;;;;13.03;3.77;;;;;;;7.14;100.00;101522.41;5093228;28;20931;-68
2023/04/20 02:14:39;;;;;;;8.47;3.60;;;;;;;7.18;100.00;101528.94;5093558;28;20485;-65
2023/04/20 02:17:06;;;;;;;9.80;4.10;;;;;;;7.21;100.00;101518.44;5093600;28;20440;-66
2023/04/20 02:19:33;;;;;;;9.53;4.27;;;;;;;7.21;100.00;101520.31;5093504;28;20497;-66
2023/04/20 02:22:00;;;;;;;8.77;3.40;;;;;;;7.26;100.00;101529.28;5093362;28;20539;-66
2023/04/20 02:24:26;;;;;;;10.60;4.17;;;;;;;7.32;100.00;101525.56;5093069;28;20445;-66
2023/04/20 02:26:53;;;;;;;9.40;3.33;;;;;;;7.38;100.00;101528.28;5093307;28;20519;-66
2023/04/20 02:29:19;;;;;;;8.60;3.27;;;;;;;7.42;100.00;101535.59;5093213;28;20479;-66
2023/04/20 02:31:47;;;;;;;8.60;3.77;;;;;;;7.44;100.00;101538.06;5093391;28;20468;-66
2023/04/20 02:34:14;;;;;;;20.63;5.03;;;;;;;7.44;100.00;101529.97;5093195;28;20492;-66
2023/04/20 02:36:41;;;;;;;9.50;3.53;;;;;;;7.48;100.00;101537.28;5092867;28;20447;-66
2023/04/20 02:39:08;;;;;;;10.20;4.03;;;;;;;7.45;100.00;101523.50;5093233;28;20523;-70
2023/04/20 02:41:35;;;;;;;11.33;4.90;;;;;;;7.50;100.00;101537.03;5093241;28;20850;-70
2023/04/20 02:44:01;;;;;;;10.33;4.50;;;;;;;7.51;100.00;101535.94;5092773;28;20476;-69
2023/04/20 02:46:28;;;;;;;10.73;4.57;;;;;;;7.50;100.00;101528.94;5093104;28;20472;-66
2023/04/20 02:48:56;;;;;;;8.20;3.63;;;;;;;7.52;100.00;101534.88;5093183;28;20531;-68
2023/04/20 02:51:23;;;;;;;12.13;5.03;;;;;;;7.53;100.00;101533.84;5092812;28;20432;-66
2023/04/20 02:53:49;;;;;;;15.37;4.77;;;;;;;7.57;100.00;101535.75;5092712;28;20466;-65
2023/04/20 02:56:16;;;;;;;12.00;5.10;;;;;;;7.63;100.00;101525.00;5093077;28;20451;-67
2023/04/20 02:58:43;;;;;;;13.40;5.00;;;;;;;7.62;100.00;101532.28;5093075;28;21027;-66
2023/04/20 03:01:09;;;;;;;10.90;4.37;;;;;;;7.62;100.00;101534.16;5092994;28;20690;-66
2023/04/20 03:03:36;;;;;;;10.50;4.30;;;;;;;7.67;100.00;101537.72;5092896;28;20460;-67
2023/04/20 03:06:04;;;;;;;12.97;5.27;;;;;;;7.61;100.00;101532.53;5092929;28;20480;-66
2023/04/20 03:08:31;;;;;;;10.27;4.50;;;;;;;7.62;100.00;101537.69;5092530;28;20899;-66
2023/04/20 03:10:57;;;;;;;16.10;6.20;;;;;;;7.55;100.00;101535.19;5092659;28;20494;-68
2023/04/20 03:13:24;;;;;;;12.63;6.03;;;;;;;7.58;100.00;101536.56;5092855;28;20806;-67
2023/04/20 03:15:51;;;;;;;10.60;4.57;;;;;;;7.56;100.00;101538.69;5093377;28;20440;-67
2023/04/20 03:18:17;;;;;;;10.97;5.07;;;;;;;7.60;100.00;101537.09;5096868;28;20443;-66
2023/04/20 03:20:44;;;;;;;13.30;5.67;;;;;;;7.60;100.00;101529.00;5096554;28;20440;-65
2023/04/20 03:23:12;;;;;;;12.83;5.50;;;;;;;7.61;100.00;101543.31;5096711;28;20460;-66
2023/04/20 03:25:38;;;;;;;11.47;4.93;;;;;;;7.61;100.00;101537.91;5096449;28;20535;-66
2023/04/20 03:28:05;;;;;;;13.50;5.87;;;;;;;7.57;100.00;101534.94;5096693;28;20505;-66
2023/04/20 03:30:32;;;;;;;14.90;6.13;;;;;;;7.52;100.00;101529.47;5096450;28;20483;-66
2023/04/20 03:32:58;;;;;;;15.50;7.20;;;;;;;7.47;100.00;101537.53;5096561;28;20492;-67
2023/04/20 03:35:25;;;;;;;15.33;7.37;;;;;;;7.51;100.00;101539.47;5096629;28;20448;-67
2023/04/20 03:37:52;;;;;;;18.90;7.53;;;;;;;7.41;100.00;101541.25;5096512;28;20535;-67
2023/04/20 03:40:20;;;;;;;15.07;6.70;;;;;;;7.46;100.00;101541.31;5096153;28;20436;-67
2023/04/20 03:42:47;;;;;;;17.20;8.17;;;;;;;7.54;100.00;101548.94;5096132;28;20472;-66
2023/04/20 03:45:13;;;;;;;20.40;7.83;;;;;;;7.57;100.00;101551.94;5096381;28;20467;-66
2023/04/20 03:47:40;;;;;;;18.63;8.13;;;;;;;7.57;100.00;101559.22;5096289;28;20890;-66
2023/04/20 03:50:08;;;;;;;16.60;8.60;;;;;;;7.53;100.00;101558.09;5096293;28;20785;-66
2023/04/20 03:52:35;;;;;;;24.27;7.83;;;;;;;7.52;100.00;101554.56;5095869;28;20452;-66
2023/04/20 03:55:01;;;;;;;16.37;7.60;;;;;;;7.44;100.00;101551.53;5096298;28;20509;-66
2023/04/20 03:57:29;;;;;;;19.53;7.77;;;;;;;7.46;100.00;101546.69;5096135;28;20443;-66
2023/04/20 03:59:56;;;;;;;18.93;9.00;;;;;;;7.50;100.00;101542.41;5096194;28;20863;-65
2023/04/20 04:02:22;;;;;;;21.07;7.70;;;;;;;7.51;100.00;101544.03;5095966;28;20495;-64
2023/04/20 04:04:49;;;;;;;18.60;6.70;;;;;;;7.53;100.00;101550.00;5095985;28;20442;-64
2023/04/20 04:07:16;;;;;;;14.27;7.20;;;;;;;7.59;100.00;101551.66;5095551;28;20843;-64
2023/04/20 04:09:42;;;;;;;17.77;8.40;;;;;;;7.57;100.00;101548.44;5095858;28;20436;-64
2023/04/20 04:12:09;;;;;;;19.30;7.60;;;;;;;7.57;100.00;101553.81;5095797;28;20471;-64
2023/04/20 04:14:37;;;;;;;18.27;8.23;;;;;;;7.54;100.00;101554.31;5095805;28;20444;-65
2023/04/20 04:17:04;;;;;;;21.23;9.70;;;;;;;7.55;100.00;101547.84;5095416;28;20977;-64
2023/04/20 04:19:31;;;;;;;18.50;8.77;;;;;;;7.60;100.00;101553.28;5095713;28;20444;-64
2023/04/20 04:21:57;;;;;;;19.27;7.80;;;;;;;7.55;100.00;101555.94;5095628;28;20440;-64
2023/04/20 04:24:25;;;;;;;19.27;7.90;;;;;;;7.55;100.00;101548.66;5095340;28;20445;-67
2023/04/20 04:26:55;;;;;;;24.30;9.03;;;;;;;7.57;100.00;101561.91;5095372;28;20449;-65
2023/04/20 04:29:22;;;;;;;20.57;9.20;;;;;;;7.51;100.00;101562.91;5094443;28;20946;-65
2023/04/20 04:31:50;;;;;;;19.70;8.40;;;;;;;7.51;100.00;101560.22;5095475;28;20808;-67
2023/04/20 04:34:17;;;;;;;19.63;8.00;;;;;;;7.45;100.00;101563.94;5095361;28;20460;-65
2023/04/20 04:36:44;;;;;;;19.47;9.20;;;;;;;7.49;100.00;101568.56;5095424;28;20802;-66
2023/04/20 04:39:12;;;;;;;19.90;8.30;;;;;;;7.39;100.00;101560.38;5095009;28;20927;-66
2023/04/20 04:41:38;;;;;;;24.00;8.77;;;;;;;7.41;100.00;101568.22;5095229;28;20436;-66
2023/04/20 04:44:05;;;;;;;19.00;8.90;;;;;;;7.44;100.00;101565.03;5094920;28;20568;-66
2023/04/20 04:46:32;;;;;;;25.83;9.23;;;;;;;7.51;100.00;101565.59;5094975;28;20454;-68
2023/04/20 04:49:01;;;;;;;27.13;7.70;;;;;;;7.46;100.00;101568.25;5095116;28;20597;-66
2023/04/20 04:51:28;;;;;;;28.80;9.63;;;;;;;7.43;100.00;101566.88;5094882;28;20522;-66
2023/04/20 04:53:54;;;;;;;22.03;9.47;;;;;;;7.45;100.00;101572.03;5094999;28;20471;-66
2023/04/20 04:56:22;;;;;;;22.33;9.60;;;;;;;7.48;100.00;101566.94;5095017;28;20440;-71
2023/04/20 04:58:48;;;;;;;21.70;9.03;;;;;;;7.34;100.00;101571.91;5094722;28;20846;-70
2023/04/20 05:01:15;;;;;;;23.60;11.07;;;;;;;7.41;100.00;101585.19;5094589;28;20820;-67
2023/04/20 05:03:42;;;;;;;22.50;9.07;;;;;;;7.48;100.00;101588.50;5094783;28;20460;-66
2023/04/20 05:06:09;;;;;;;24.23;8.37;;;;;;;7.56;100.00;101587.22;5094821;28;20451;-66
2023/04/20 05:08:36;;;;;;;21.73;9.13;;;;;;;7.64;100.00;101586.75;5094388;28;20480;-66
2023/04/20 05:11:02;;;;;;;18.43;8.07;;;;;;;7.71;100.00;101589.25;5094731;28;20433;-66
2023/04/20 05:13:29;;;;;;;22.17;10.30;;;;;;;7.74;100.00;101576.03;5094634;28;20467;-66
2023/04/20 05:15:56;;;;;;;26.30;9.97;;;;;;;7.81;100.00;101565.84;5094654;28;20531;-66
2023/04/20 05:18:22;;;;;;;23.60;9.10;;;;;;;7.91;100.00;101567.00;5094579;28;20437;-66
2023/04/20 05:20:49;;;;;;;26.60;9.80;;;;;;;7.96;100.00;101567.84;5094537;28;20487;-65
2023/04/20 05:23:17;;;;;;;26.00;9.43;;;;;;;8.02;100.00;101576.81;5094361;28;20467;-66
2023/04/20 05:25:43;;;;;;;23.20;10.20;;;;;;;8.00;100.00;101587.84;5094407;28;20535;-66
2023/04/20 05:28:10;;;;;;;26.17;11.57;;;;;;;8.08;100.00;101597.34;5094026;28;20476;-68
2023/04/20 05:30:37;;;;;;;27.70;9.27;;;;;;;8.09;100.00;101598.97;5094031;28;20494;-66
2023/04/20 05:33:03;;;;;;;25.43;9.23;;;;;;;8.11;100.00;101593.34;5093919;28;20780;-66
2023/04/20 05:35:30;;;;;;;21.70;9.50;;;;;;;8.17;100.00;101587.69;5094020;28;20444;-67
2023/04/20 05:37:59;;;;;;;30.20;9.60;;;;;;;8.24;100.00;101590.19;5093991;28;20436;-66
2023/04/20 05:40:27;;;;;;;25.70;9.30;;;;;;;8.27;100.00;101581.53;5092586;28;20951;-66
2023/04/20 05:42:53;;;;;;;18.50;9.80;;;;;;;8.23;100.00;101577.75;5093550;28;20567;-66
2023/04/20 05:45:20;;;;;;;20.50;8.30;;;;;;;8.28;100.00;101586.69;5093554;28;20943;-66
2023/04/20 05:47:52;;;;;;;23.30;9.03;;;;;;;8.34;100.00;101601.03;5093792;28;20532;-66
2023/04/20 05:50:19;;;;;;;20.83;9.20;;;;;;;8.38;100.00;101590.56;5093534;28;20432;-66
2023/04/20 05:52:46;;;;;;;20.17;9.57;;;;;;;8.45;100.00;101596.53;5093518;28;20548;-67
2023/04/20 05:55:12;;;;;;;26.20;9.50;;;;;;;8.42;100.00;101603.28;5093810;28;20450;-66
2023/04/20 05:57:41;;;;;;;23.10;9.60;;;;;;;8.38;100.00;101612.97;5093828;28;20436;-67
2023/04/20 06:00:10;;;;;;;18.50;8.60;;;;;;;8.42;100.00;101605.16;5093815;28;20436;-67
2023/04/20 06:02:37;;;;;;;22.17;9.37;;;;;;;8.47;100.00;101600.59;5093441;28;20463;-69
2023/04/20 06:05:03;;;;;;;18.27;8.63;;;;;;;8.49;100.00;101608.44;5093729;28;20448;-68
2023/04/20 06:07:30;;;;;;;27.50;8.90;;;;;;;8.52;100.00;101608.72;5093625;28;20437;-67
2023/04/20 06:09:59;;;;;;;25.10;9.17;;;;;;;8.61;100.00;101605.53;5093656;28;20441;-68
2023/04/20 06:12:26;;;;;;;22.63;10.00;;;;;;;8.66;100.00;101614.47;5093551;28;20503;-67
2023/04/20 06:14:54;;;;;;;19.50;8.63;;;;;;;8.68;100.00;101622.31;5093551;28;20554;-68
2023/04/20 06:17:20;;;;;;;21.40;7.63;;;;;;;8.72;100.00;101628.78;5093619;28;20519;-68
2023/04/20 06:19:47;;;;;;;21.00;8.30;;;;;;;8.71;100.00;101622.59;5093586;28;20527;-67
2023/04/20 06:22:14;;;;;;;21.37;9.73;;;;;;;8.80;100.00;101625.59;5093381;28;20455;-67
2023/04/20 06:24:41;;;;;;;28.57;10.37;;;;;;;8.81;100.00;101628.06;5093494;28;20543;-67
2023/04/20 06:27:08;;;;;;;18.87;9.30;;;;;;;8.83;100.00;101631.28;5093412;28;20497;-68
2023/04/20 06:29:35;;;;;;;18.27;8.87;;;;;;;8.84;100.00;101630.22;5093027;28;20480;-67
2023/04/20 06:32:03;;;;;;;17.17;8.33;;;;;;;8.82;100.00;101629.69;5092962;28;20444;-67
2023/04/20 06:34:29;;;;;;;19.53;9.87;;;;;;;8.88;100.00;101619.69;5093050;28;20824;-67
2023/04/20 06:36:56;;;;;;;29.23;9.70;;;;;;;8.93;100.00;101625.13;5093265;28;20455;-67
2023/04/20 06:39:23;;;;;;;20.27;8.17;;;;;;;9.01;100.00;101626.50;5093100;28;20472;-67
2023/04/20 06:41:49;;;;;;;25.27;9.73;;;;;;;9.11;100.00;101637.34;5092857;28;20939;-66
2023/04/20 06:44:16;;;;;;;18.20;8.90;;;;;;;9.13;100.00;101631.69;5092688;28;20511;-66
2023/04/20 06:46:42;;;;;;;22.33;8.27;;;;;;;9.14;100.00;101634.13;5092865;28;20451;-66
2023/04/20 06:49:10;;;;;;;23.27;9.70;;;;;;;9.21;100.00;101626.59;5092934;28;20480;-66
2023/04/20 06:51:38;;;;;;;20.60;8.67;;;;;;;9.21;100.00;101629.28;5092682;28;20531;-66
2023/04/20 06:54:05;;;;;;;20.77;9.73;;;;;;;9.19;100.00;101633.31;5092928;28;20460;-66
2023/04/20 06:56:32;;;;;;;19.30;8.77;;;;;;;9.24;100.00;101633.34;5093009;28;20539;-66
2023/04/20 06:58:58;;;;;;;19.37;8.90;;;;;;;9.32;100.00;101638.22;5092707;28;20466;-70
2023/04/20 07:01:25;;;;;;;20.07;8.90;;;;;;;9.43;100.00;101628.25;5092992;28;20440;-66
2023/04/20 07:03:51;;;;;;;15.63;7.73;;;;;;;9.54;100.00;101630.69;5092867;28;20468;-68
2023/04/20 07:06:19;;;;;;;20.93;8.63;;;;;;;9.63;100.00;101627.47;5092920;28;20527;-67
2023/04/20 07:08:46;;;;;;;16.90;7.50;;;;;;;9.59;100.00;101636.13;5092615;28;20487;-67
2023/04/20 07:11:12;;;;;;;16.60;7.50;;;;;;;9.64;100.00;101629.91;5092919;28;20527;-67
2023/04/20 07:13:39;;;;;;;18.37;8.20;;;;;;;9.64;100.00;101629.91;5092825;28;20547;-67
2023/04/20 07:16:06;;;;;;;17.30;7.33;;;;;;;9.67;100.00;101634.78;5092784;28;20441;-67
2023/04/20 07:18:33;;;;;;;18.47;7.63;;;;;;;9.65;100.00;101636.97;5092794;28;20436;-67
2023/04/20 07:20:59;;;;;;;18.63;8.80;;;;;;;9.73;100.00;101639.09;5092803;28;20444;-67
2023/04/20 07:23:27;;;;;;;26.83;10.13;;;;;;;9.90;100.00;101643.47;5092427;28;20967;-66
2023/04/20 07:25:54;;;;;;;24.67;9.67;;;;;;;10.05;99.94;101640.75;5092759;28;20429;-67
2023/04/20 07:28:20;;;;;;;22.43;10.60;;;;;;;10.10;98.92;101646.16;5092687;28;20487;-68
2023/04/20 07:30:47;;;;;;;20.47;8.63;;;;;;;10.08;97.42;101656.44;5092405;28;20441;-66
2023/04/20 07:33:14;;;;;;;20.07;8.03;;;;;;;9.95;96.82;101652.38;5092604;28;20471;-67
2023/04/20 07:35:40;;;;;;;15.23;5.50;;;;;;;9.99;97.12;101658.06;5092718;28;20484;-67
2023/04/20 07:38:07;;;;;;;16.83;8.20;;;;;;;10.10;96.50;101657.00;5092518;28;20444;-67
2023/04/20 07:40:35;;;;;;;16.93;8.67;;;;;;;10.15;96.70;101664.31;5092681;28;20515;-67
2023/04/20 07:43:02;;;;;;;22.27;9.17;;;;;;;10.14;97.33;101668.91;5092109;28;20480;-67
2023/04/20 07:45:28;;;;;;;19.37;8.53;;;;;;;10.34;97.33;101660.78;5092524;28;20535;-66
2023/04/20 07:47:56;;;;;;;16.97;8.50;;;;;;;10.47;96.83;101658.63;5093813;28;20448;-66
2023/04/20 07:50:22;;;;;;;24.40;9.07;;;;;;;10.51;94.87;101660.50;5092479;28;20530;-69
2023/04/20 07:52:49;;;;;;;20.57;8.70;;;;;;;10.63;94.74;101667.53;5092524;28;20463;-67
2023/04/20 07:55:16;;;;;;;17.00;7.97;;;;;;;10.67;94.92;101668.56;5092521;28;20820;-67
2023/04/20 07:57:45;;;;;;;18.40;8.83;;;;;;;10.69;94.81;101667.22;5092471;28;20476;-67
2023/04/20 08:00:12;;;;;;;19.10;8.50;;;;;;;10.73;93.93;101657.47;5092505;28;20440;-68
2023/04/20 08:02:39;;;;;;;20.20;9.17;;;;;;;10.89;94.02;101663.66;5092529;28;20491;-68
2023/04/20 08:05:07;;;;;;;20.43;8.67;;;;;;;10.95;93.49;101664.44;5096062;28;20466;-68
2023/04/20 08:07:33;;;;;;;15.20;7.23;;;;;;;10.95;92.49;101669.88;5095708;28;20498;-69
2023/04/20 08:10:01;;;;;;;17.80;7.73;;;;;;;10.90;92.54;101676.13;5095588;28;20994;-68
2023/04/20 08:12:28;;;;;;;14.33;7.30;;;;;;;11.02;91.78;101676.63;5095869;28;20891;-68
2023/04/20 08:14:59;;;;;;;17.03;8.80;;;;;;;11.02;91.32;101675.78;5095567;28;20454;-68
2023/04/20 08:17:25;;;;;;;16.90;7.13;;;;;;;11.09;90.83;101676.31;5095547;28;20921;-70
2023/04/20 08:19:52;;;;;;;20.50;7.87;;;;;;;11.15;90.09;101675.19;5095525;28;20454;-69
2023/04/20 08:22:19;;;;;;;14.67;6.77;;;;;;;11.01;89.86;101669.56;5095704;28;20460;-69
2023/04/20 08:24:45;;;;;;;18.10;7.30;;;;;;;11.03;89.61;101677.44;5095693;28;20440;-68
2023/04/20 08:27:12;;;;;;;14.47;7.40;;;;;;;11.15;89.25;101675.19;5095277;28;20835;-68
2023/04/20 08:29:39;;;;;;;15.60;7.50;;;;;;;11.32;89.63;101680.28;5095652;28;20506;-69
2023/04/20 08:32:08;;;;;;;20.30;8.10;;;;;;;11.36;88.50;101687.59;5095445;28;20459;-69
2023/04/20 08:34:35;;;;;;;16.00;7.20;;;;;;;11.60;88.90;101678.78;5095489;28;20445;-69
2023/04/20 08:37:01;;;;;;;17.90;7.30;;;;;;;11.64;88.32;101682.53;5095432;28;20523;-69
2023/04/20 08:39:29;;;;;;;15.50;7.40;;;;;;;11.83;88.48;101690.88;5095438;28;20472;-71
2023/04/20 08:41:56;;;;;;;13.70;6.10;;;;;;;11.89;86.67;101683.50;5095703;28;20444;-73
2023/04/20 08:44:23;;;;;;;15.17;6.07;;;;;;;11.94;86.34;101683.47;5095116;28;20464;-71
2023/04/20 08:46:50;;;;;;;14.43;5.80;;;;;;;11.87;87.13;101691.94;5095079;28;20464;-70
2023/04/20 08:49:19;;;;;;;12.77;6.67;;;;;;;11.92;86.17;101683.75;5095079;28;20539;-67
2023/04/20 08:51:47;;;;;;;16.27;6.07;;;;;;;12.02;85.38;101693.72;5094794;28;20807;-67
2023/04/20 08:54:14;;;;;;;13.50;6.00;;;;;;;11.97;85.49;101688.34;5095085;28;20543;-70
2023/04/20 08:56:43;;;;;;;15.90;6.23;;;;;;;11.80;85.65;101692.22;5095054;28;20444;-68
2023/04/20 08:59:11;;;;;;;15.60;7.07;;;;;;;11.67;86.32;101692.84;5094905;28;20436;-68
2023/04/20 09:01:40;;;;;;;12.47;5.87;;;;;;;11.45;87.24;101689.72;5094913;28;20447;-68
2023/04/20 09:04:15;;;;;;;16.57;7.40;;;;;;;11.27;87.65;101688.44;5094470;28;20467;-67
2023/04/20 09:06:45;;;;;;;16.40;6.37;;;;;;;11.13;88.45;101676.59;5094735;28;20425;-67
2023/04/20 09:09:11;;;;;;;16.57;6.83;;;;;;;10.93;89.92;101689.09;5094735;28;20570;-68
2023/04/20 09:11:39;;;;;;;11.37;5.20;;;;;;;10.71;92.07;101689.44;5094807;28;20524;-67
2023/04/20 09:14:08;;;;;;;16.10;6.40;;;;;;;10.67;92.82;101691.09;5094054;28;21051;-67
2023/04/20 09:16:36;;;;;;;14.00;6.67;;;;;;;10.56;94.21;101694.91;5094704;28;20444;-68
2023/04/20 09:19:03;;;;;;;19.27;8.17;;;;;;;10.49;94.63;101694.34;5094562;28;20528;-67
2023/04/20 09:21:30;;;;;;;16.50;6.73;;;;;;;10.48;96.06;101681.91;5094533;28;20440;-67
2023/04/20 09:24:00;;;;;;;18.23;6.80;;;;;;;10.50;96.97;101688.69;5094048;28;20551;-67
2023/04/20 09:26:27;;;;;;;15.47;6.90;;;;;;;10.57;98.01;101697.31;5094746;28;20487;-67
2023/04/20 09:28:53;;;;;;;17.13;6.97;;;;;;;10.57;98.60;101689.19;5093965;28;20481;-68
2023/04/20 09:31:21;;;;;;;12.40;5.80;;;;;;;10.53;99.15;101690.81;5094368;28;20527;-67
2023/04/20 09:33:59;;;;;;;14.70;6.50;;;;;;;10.38;98.96;101685.44;5094288;28;20891;-68
2023/04/20 09:36:35;;;;;;;16.80;6.80;;;;;;;10.35;98.93;101684.06;5093843;28;20874;-68
2023/04/20 09:39:06;;;;;;;20.53;7.10;;;;;;;10.24;99.16;101684.34;5093921;28;20424;-67
2023/04/20 09:41:35;;;;;;;16.67;7.37;;;;;;;10.22;99.30;101679.19;5093807;28;20476;-67
2023/04/20 09:44:02;;;;;;;17.23;7.83;;;;;;;10.23;99.83;101685.44;5093620;28;20472;-67
2023/04/20 09:46:31;;;;;;;12.63;5.87;;;;;;;10.25;100.00;101686.78;5094092;28;20476;-68
2023/04/20 09:48:58;;;;;;;16.30;7.60;;;;;;;10.35;100.00;101683.25;5093614;28;21021;-68
2023/04/20 09:51:26;;;;;;;17.83;7.00;;;;;;;10.50;99.78;101679.75;5094022;28;20432;-68
2023/04/20 09:53:54;;;;;;;14.27;6.53;;;;;;;10.54;99.08;101683.53;5093626;28;20525;-67
2023/04/20 09:56:22;;;;;;;15.93;6.57;;;;;;;10.63;99.85;101684.59;5093652;28;20947;-68
2023/04/20 09:58:50;;;;;;;15.23;7.07;;;;;;;10.83;99.73;101684.53;5093506;28;20458;-68
2023/04/20 10:01:17;;;;;;;14.17;6.70;;;;;;;11.15;99.39;101677.09;5093496;28;20432;-67
2023/04/20 10:03:45;;;;;;;17.97;7.53;;;;;;;11.39;98.55;101682.69;5093689;28;20551;-68
2023/04/20 10:06:19;;;;;;;13.90;7.10;;;;;;;11.67;97.33;101673.84;5093779;28;20466;-68
2023/04/20 10:08:46;;;;;;;17.93;7.30;;;;;;;11.94;96.06;101669.88;5093672;28;20968;-68
2023/04/20 10:11:26;;;;;;;17.17;7.90;;;;;;;12.09;95.90;101669.78;5093680;28;20447;-67
2023/04/20 10:13:52;;;;;;;12.40;6.57;;;;;;;12.01;93.24;101675.81;5093421;28;20543;-69
2023/04/20 10:16:19;;;;;;;15.33;6.20;;;;;;;12.09;92.87;101677.94;5093592;28;20630;-68
2023/04/20 10:18:56;;;;;;;11.67;6.40;;;;;;;12.13;93.04;101676.28;5093576;28;20466;-67
2023/04/20 10:21:23;;;;;;;15.60;6.90;;;;;;;12.05;91.98;101671.44;5093213;28;20431;-67
2023/04/20 10:23:50;;;;;;;16.17;7.30;;;;;;;12.02;90.97;101675.53;5093430;28;20488;-68
2023/04/20 10:26:16;;;;;;;12.80;6.03;;;;;;;12.16;91.37;101675.69;5092759;28;20452;-67
2023/04/20 10:28:45;;;;;;;14.17;6.80;;;;;;;12.23;91.92;101667.22;5093335;28;20447;-70
2023/04/20 10:31:14;;;;;;;15.10;6.40;;;;;;;12.16;90.08;101667.53;5093409;28;20452;-71
2023/04/20 10:33:54;;;;;;;15.13;6.40;;;;;;;12.39;90.07;101679.53;5093302;28;20525;-67
2023/04/20 10:36:25;;;;;;;13.87;6.10;;;;;;;12.53;88.85;101677.00;5093003;28;20523;-67
2023/04/20 10:38:52;;;;;;;13.70;5.43;;;;;;;12.59;87.55;101664.97;5093327;28;20530;-67
2023/04/20 10:41:19;;;;;;;16.70;6.90;;;;;;;12.47;86.24;101670.78;5093173;28;20435;-67
2023/04/20 10:43:47;;;;;;;14.57;6.43;;;;;;;12.58;88.24;101668.78;5092791;28;20986;-67
2023/04/20 10:46:15;;;;;;;15.60;5.83;;;;;;;12.81;88.03;101667.97;5092852;28;20436;-67
2023/04/20 10:48:53;;;;;;;12.77;5.67;;;;;;;13.17;86.84;101659.38;5093083;28;20439;-67
2023/04/20 10:51:20;;;;;;;14.53;6.30;;;;;;;13.58;85.74;101653.41;5092963;28;20513;-67
2023/04/20 10:53:57;;;;;;;10.60;5.33;;;;;;;14.04;84.09;101633.63;5092954;28;20496;-67
2023/04/20 10:56:24;;;;;;;14.63;6.00;;;;;;;14.19;80.74;101627.91;5092758;28;20424;-68
2023/04/20 10:58:52;;;;;;;13.33;5.77;;;;;;;14.56;80.35;101640.59;5093087;28;20441;-67
2023/04/20 11:01:19;;;;;;;12.10;6.00;;;;;;;14.54;74.92;101631.13;5092958;28;20531;-67
2023/04/20 11:03:50;;;;;;;13.33;5.37;;;;;;;14.54;78.06;101634.66;5092941;28;20475;-67
2023/04/20 11:06:17;;;;;;;16.83;6.77;;;;;;;14.59;77.26;101637.28;5092944;28;20421;-68
2023/04/20 11:08:44;;;;;;;13.17;5.13;;;;;;;14.71;77.01;101644.97;5093009;28;20483;-68
2023/04/20 11:11:20;;;;;;;12.43;6.33;;;;;;;14.97;76.17;101644.47;5092524;28;20486;-68
2023/04/20 11:13:47;;;;;;;14.93;7.27;;;;;;;15.08;76.45;101645.84;5092589;28;20459;-68
2023/04/20 11:16:17;;;;;;;13.20;6.07;;;;;;;15.14;76.64;101636.47;5092615;28;20518;-67
2023/04/20 11:18:51;;;;;;;14.53;5.90;;;;;;;15.22;74.50;101637.66;5092868;28;20881;-67